<?xml version="1.0" encoding="UTF-8" standalone="no" ?>
<gpx xmlns="http://www.topografix.com/GPX/1/1" xmlns:xsi="http://www.w3.org/2001/XMLSchema-instance" xsi:schemaLocation="http://www.topografix.com/GPX/1/1 http://www.topografix.com/GPX/1/1/gpx.xsd" version="1.1" creator="VisuGPX - https://www.visugpx.com">
  <metadata>
    <name>parcours pedestre 2km</name>
    <desc><![CDATA[parcours pedestre 2km]]></desc>
  </metadata>
  <trk>
    <name><![CDATA[parcours pedestre 2km_1]]></name>
    <trkseg>
      <trkpt lat="50.50317" lon="2.86886">
        <ele>13.269000053406</ele>
        <time>2011-03-16T13:54:38Z</time>
      </trkpt>
      <trkpt lat="50.50309" lon="2.8689">
        <ele>12.701999664307</ele>
        <time>2011-03-16T13:54:43Z</time>
      </trkpt>
      <trkpt lat="50.50287" lon="2.869">
        <ele>12.456000328064</ele>
        <time>2011-03-16T13:54:50Z</time>
      </trkpt>
      <trkpt lat="50.50271" lon="2.86907">
        <ele>12.680999755859</ele>
        <time>2011-03-16T13:54:54Z</time>
      </trkpt>
      <trkpt lat="50.50245" lon="2.86905">
        <ele>13.798000335693</ele>
        <time>2011-03-16T13:55:01Z</time>
      </trkpt>
      <trkpt lat="50.50226" lon="2.86913">
        <ele>13.824000358582</ele>
        <time>2011-03-16T13:55:06Z</time>
      </trkpt>
      <trkpt lat="50.50208" lon="2.86935">
        <ele>13.59700012207</ele>
        <time>2011-03-16T13:55:12Z</time>
      </trkpt>
      <trkpt lat="50.50203" lon="2.86951">
        <ele>13.829000473023</ele>
        <time>2011-03-16T13:55:17Z</time>
      </trkpt>
      <trkpt lat="50.50199" lon="2.86971">
        <ele>13.628999710083</ele>
        <time>2011-03-16T13:55:23Z</time>
      </trkpt>
      <trkpt lat="50.50191" lon="2.86999">
        <ele>13.388999938965</ele>
        <time>2011-03-16T13:55:30Z</time>
      </trkpt>
      <trkpt lat="50.50185" lon="2.87008">
        <ele>13.08899974823</ele>
        <time>2011-03-16T13:55:32Z</time>
      </trkpt>
      <trkpt lat="50.50176" lon="2.87016">
        <ele>12.788999557495</ele>
        <time>2011-03-16T13:55:34Z</time>
      </trkpt>
      <trkpt lat="50.5016" lon="2.87044">
        <ele>11.237000465393</ele>
        <time>2011-03-16T13:55:38Z</time>
      </trkpt>
      <trkpt lat="50.50143" lon="2.87067">
        <ele>9.7449998855591</ele>
        <time>2011-03-16T13:55:41Z</time>
      </trkpt>
      <trkpt lat="50.50126" lon="2.87098">
        <ele>9.418999671936</ele>
        <time>2011-03-16T13:55:45Z</time>
      </trkpt>
      <trkpt lat="50.50128" lon="2.87125">
        <ele>9.7229995727539</ele>
        <time>2011-03-16T13:55:48Z</time>
      </trkpt>
      <trkpt lat="50.50132" lon="2.87152">
        <ele>9.41100025177</ele>
        <time>2011-03-16T13:55:51Z</time>
      </trkpt>
      <trkpt lat="50.50121" lon="2.87173">
        <ele>8.7290000915527</ele>
        <time>2011-03-16T13:55:54Z</time>
      </trkpt>
      <trkpt lat="50.50105" lon="2.87204">
        <ele>9.1700000762939</ele>
        <time>2011-03-16T13:55:58Z</time>
      </trkpt>
      <trkpt lat="50.50084" lon="2.87227">
        <ele>9.375</ele>
        <time>2011-03-16T13:56:02Z</time>
      </trkpt>
      <trkpt lat="50.50057" lon="2.87232">
        <ele>9.2770004272461</ele>
        <time>2011-03-16T13:56:06Z</time>
      </trkpt>
      <trkpt lat="50.50045" lon="2.8724">
        <ele>9.2959995269775</ele>
        <time>2011-03-16T13:56:08Z</time>
      </trkpt>
      <trkpt lat="50.50027" lon="2.87244">
        <ele>9.0120000839233</ele>
        <time>2011-03-16T13:56:13Z</time>
      </trkpt>
      <trkpt lat="50.50019" lon="2.8724">
        <ele>8.9969997406006</ele>
        <time>2011-03-16T13:56:18Z</time>
      </trkpt>
      <trkpt lat="50.50019" lon="2.8724">
        <ele>8.9429998397827</ele>
        <time>2011-03-16T13:56:19Z</time>
      </trkpt>
      <trkpt lat="50.50012" lon="2.87248">
        <ele>9.4890003204346</ele>
        <time>2011-03-16T14:04:49Z</time>
      </trkpt>
      <trkpt lat="50.50005" lon="2.87253">
        <ele>9.5590000152588</ele>
        <time>2011-03-16T14:04:54Z</time>
      </trkpt>
      <trkpt lat="50.49993" lon="2.87263">
        <ele>9.5430002212524</ele>
        <time>2011-03-16T14:05:02Z</time>
      </trkpt>
      <trkpt lat="50.49981" lon="2.87277">
        <ele>10.052000045776</ele>
        <time>2011-03-16T14:05:10Z</time>
      </trkpt>
      <trkpt lat="50.4997" lon="2.87293">
        <ele>10.281000137329</ele>
        <time>2011-03-16T14:05:16Z</time>
      </trkpt>
      <trkpt lat="50.4996" lon="2.87316">
        <ele>10.927000045776</ele>
        <time>2011-03-16T14:05:21Z</time>
      </trkpt>
      <trkpt lat="50.49955" lon="2.87349">
        <ele>13.015999794006</ele>
        <time>2011-03-16T14:05:27Z</time>
      </trkpt>
      <trkpt lat="50.49951" lon="2.87391">
        <ele>14.751000404358</ele>
        <time>2011-03-16T14:05:34Z</time>
      </trkpt>
      <trkpt lat="50.4995" lon="2.87411">
        <ele>14.805000305176</ele>
        <time>2011-03-16T14:05:37Z</time>
      </trkpt>
      <trkpt lat="50.49956" lon="2.87449">
        <ele>14.256999969482</ele>
        <time>2011-03-16T14:05:42Z</time>
      </trkpt>
      <trkpt lat="50.4997" lon="2.87481">
        <ele>14.817999839783</ele>
        <time>2011-03-16T14:05:47Z</time>
      </trkpt>
      <trkpt lat="50.49985" lon="2.87495">
        <ele>14.906999588013</ele>
        <time>2011-03-16T14:05:51Z</time>
      </trkpt>
      <trkpt lat="50.5001" lon="2.8749">
        <ele>15.385999679565</ele>
        <time>2011-03-16T14:05:57Z</time>
      </trkpt>
      <trkpt lat="50.5003" lon="2.87484">
        <ele>15.975999832153</ele>
        <time>2011-03-16T14:06:02Z</time>
      </trkpt>
      <trkpt lat="50.50039" lon="2.875">
        <ele>16.117000579834</ele>
        <time>2011-03-16T14:06:06Z</time>
      </trkpt>
      <trkpt lat="50.50042" lon="2.87521">
        <ele>16.002000808716</ele>
        <time>2011-03-16T14:06:10Z</time>
      </trkpt>
      <trkpt lat="50.50051" lon="2.8752">
        <ele>15.60000038147</ele>
        <time>2011-03-16T14:06:13Z</time>
      </trkpt>
      <trkpt lat="50.50062" lon="2.87509">
        <ele>14.387000083923</ele>
        <time>2011-03-16T14:06:15Z</time>
      </trkpt>
      <trkpt lat="50.50069" lon="2.87506">
        <ele>13.986000061035</ele>
        <time>2011-03-16T14:06:16Z</time>
      </trkpt>
      <trkpt lat="50.5012" lon="2.8749">
        <ele>13.333000183106</ele>
        <time>2011-03-16T14:06:24Z</time>
      </trkpt>
      <trkpt lat="50.50132" lon="2.87486">
        <ele>13.296999931335</ele>
        <time>2011-03-16T14:06:26Z</time>
      </trkpt>
      <trkpt lat="50.50167" lon="2.8747">
        <ele>12.585000038147</ele>
        <time>2011-03-16T14:06:32Z</time>
      </trkpt>
      <trkpt lat="50.50178" lon="2.87462">
        <ele>12.513999938965</ele>
        <time>2011-03-16T14:06:34Z</time>
      </trkpt>
      <trkpt lat="50.50214" lon="2.87433">
        <ele>12.626999855042</ele>
        <time>2011-03-16T14:06:40Z</time>
      </trkpt>
      <trkpt lat="50.50227" lon="2.87435">
        <ele>12.718000411987</ele>
        <time>2011-03-16T14:06:43Z</time>
      </trkpt>
      <trkpt lat="50.50227" lon="2.8744">
        <ele>12.852000236511</ele>
        <time>2011-03-16T14:06:44Z</time>
      </trkpt>
      <trkpt lat="50.50229" lon="2.8746">
        <ele>12.842000007629</ele>
        <time>2011-03-16T14:06:48Z</time>
      </trkpt>
      <trkpt lat="50.50249" lon="2.87474">
        <ele>12.590999603272</ele>
        <time>2011-03-16T14:06:53Z</time>
      </trkpt>
      <trkpt lat="50.50253" lon="2.87474">
        <ele>12.598999977112</ele>
        <time>2011-03-16T14:06:54Z</time>
      </trkpt>
      <trkpt lat="50.50306" lon="2.87467">
        <ele>13.734999656677</ele>
        <time>2011-03-16T14:07:05Z</time>
      </trkpt>
      <trkpt lat="50.50345" lon="2.87464">
        <ele>13.871999740601</ele>
        <time>2011-03-16T14:07:13Z</time>
      </trkpt>
      <trkpt lat="50.50359" lon="2.87469">
        <ele>14.003000259399</ele>
        <time>2011-03-16T14:07:16Z</time>
      </trkpt>
      <trkpt lat="50.50367" lon="2.87474">
        <ele>14.409000396728</ele>
        <time>2011-03-16T14:07:18Z</time>
      </trkpt>
      <trkpt lat="50.50383" lon="2.87476">
        <ele>16.115999221802</ele>
        <time>2011-03-16T14:07:22Z</time>
      </trkpt>
      <trkpt lat="50.50404" lon="2.87472">
        <ele>17.527000427246</ele>
        <time>2011-03-16T14:07:27Z</time>
      </trkpt>
      <trkpt lat="50.50413" lon="2.87469">
        <ele>17.420000076294</ele>
        <time>2011-03-16T14:07:29Z</time>
      </trkpt>
      <trkpt lat="50.50431" lon="2.87454">
        <ele>16.889999389648</ele>
        <time>2011-03-16T14:07:34Z</time>
      </trkpt>
      <trkpt lat="50.50434" lon="2.87422">
        <ele>16.065999984741</ele>
        <time>2011-03-16T14:07:39Z</time>
      </trkpt>
      <trkpt lat="50.50431" lon="2.87402">
        <ele>15.753999710083</ele>
        <time>2011-03-16T14:07:42Z</time>
      </trkpt>
      <trkpt lat="50.50428" lon="2.87365">
        <ele>15.909000396728</ele>
        <time>2011-03-16T14:07:47Z</time>
      </trkpt>
      <trkpt lat="50.50426" lon="2.87342">
        <ele>16.118000030518</ele>
        <time>2011-03-16T14:07:50Z</time>
      </trkpt>
      <trkpt lat="50.50429" lon="2.87303">
        <ele>15.864999771118</ele>
        <time>2011-03-16T14:07:55Z</time>
      </trkpt>
      <trkpt lat="50.50423" lon="2.87272">
        <ele>15.062000274658</ele>
        <time>2011-03-16T14:07:59Z</time>
      </trkpt>
      <trkpt lat="50.50424" lon="2.87251">
        <ele>14.690999984741</ele>
        <time>2011-03-16T14:08:02Z</time>
      </trkpt>
      <trkpt lat="50.50413" lon="2.87246">
        <ele>13.954999923706</ele>
        <time>2011-03-16T14:08:05Z</time>
      </trkpt>
      <trkpt lat="50.50403" lon="2.8725">
        <ele>12.317000389099</ele>
        <time>2011-03-16T14:08:08Z</time>
      </trkpt>
      <trkpt lat="50.50401" lon="2.87246">
        <ele>12.104000091553</ele>
        <time>2011-03-16T14:08:09Z</time>
      </trkpt>
      <trkpt lat="50.50394" lon="2.87224">
        <ele>10.953000068665</ele>
        <time>2011-03-16T14:08:12Z</time>
      </trkpt>
      <trkpt lat="50.50394" lon="2.87216">
        <ele>10.654999732971</ele>
        <time>2011-03-16T14:08:13Z</time>
      </trkpt>
      <trkpt lat="50.50383" lon="2.87177">
        <ele>10.684000015259</ele>
        <time>2011-03-16T14:08:19Z</time>
      </trkpt>
      <trkpt lat="50.50376" lon="2.87169">
        <ele>10.654000282288</ele>
        <time>2011-03-16T14:08:22Z</time>
      </trkpt>
      <trkpt lat="50.50381" lon="2.87166">
        <ele>10.690999984741</ele>
        <time>2011-03-16T14:08:25Z</time>
      </trkpt>
      <trkpt lat="50.50386" lon="2.87151">
        <ele>10.505000114441</ele>
        <time>2011-03-16T14:08:29Z</time>
      </trkpt>
      <trkpt lat="50.50386" lon="2.87141">
        <ele>10.630999565124</ele>
        <time>2011-03-16T14:08:31Z</time>
      </trkpt>
      <trkpt lat="50.50374" lon="2.87115">
        <ele>10.725999832153</ele>
        <time>2011-03-16T14:08:37Z</time>
      </trkpt>
      <trkpt lat="50.50351" lon="2.87091">
        <ele>10.559000015259</ele>
        <time>2011-03-16T14:08:44Z</time>
      </trkpt>
      <trkpt lat="50.50356" lon="2.87073">
        <ele>10.550999641418</ele>
        <time>2011-03-16T14:08:47Z</time>
      </trkpt>
      <trkpt lat="50.50363" lon="2.87037">
        <ele>11.303000450134</ele>
        <time>2011-03-16T14:08:53Z</time>
      </trkpt>
      <trkpt lat="50.50354" lon="2.87016">
        <ele>11.027000427246</ele>
        <time>2011-03-16T14:08:57Z</time>
      </trkpt>
      <trkpt lat="50.50341" lon="2.8701">
        <ele>10.694000244141</ele>
        <time>2011-03-16T14:09:00Z</time>
      </trkpt>
      <trkpt lat="50.50329" lon="2.87019">
        <ele>10.461000442505</ele>
        <time>2011-03-16T14:09:03Z</time>
      </trkpt>
      <trkpt lat="50.50322" lon="2.87043">
        <ele>10.74199962616</ele>
        <time>2011-03-16T14:09:07Z</time>
      </trkpt>
      <trkpt lat="50.50317" lon="2.87075">
        <ele>10.413000106812</ele>
        <time>2011-03-16T14:09:12Z</time>
      </trkpt>
      <trkpt lat="50.50306" lon="2.87085">
        <ele>10.657999992371</ele>
        <time>2011-03-16T14:09:15Z</time>
      </trkpt>
      <trkpt lat="50.5029" lon="2.8708">
        <ele>10.956000328064</ele>
        <time>2011-03-16T14:09:19Z</time>
      </trkpt>
      <trkpt lat="50.50277" lon="2.87053">
        <ele>10.956000328064</ele>
        <time>2011-03-16T14:09:24Z</time>
      </trkpt>
      <trkpt lat="50.50269" lon="2.87038">
        <ele>10.486000061035</ele>
        <time>2011-03-16T14:09:27Z</time>
      </trkpt>
      <trkpt lat="50.5026" lon="2.8704">
        <ele>10.487000465393</ele>
        <time>2011-03-16T14:09:29Z</time>
      </trkpt>
      <trkpt lat="50.50252" lon="2.87044">
        <ele>10.277000427246</ele>
        <time>2011-03-16T14:09:31Z</time>
      </trkpt>
      <trkpt lat="50.50236" lon="2.87038">
        <ele>10.109000205994</ele>
        <time>2011-03-16T14:09:35Z</time>
      </trkpt>
      <trkpt lat="50.5022" lon="2.87028">
        <ele>10.515999794006</ele>
        <time>2011-03-16T14:09:40Z</time>
      </trkpt>
      <trkpt lat="50.50208" lon="2.87022">
        <ele>11.118000030518</ele>
        <time>2011-03-16T14:09:43Z</time>
      </trkpt>
      <trkpt lat="50.50203" lon="2.87007">
        <ele>12.067000389099</ele>
        <time>2011-03-16T14:09:45Z</time>
      </trkpt>
      <trkpt lat="50.50198" lon="2.86985">
        <ele>13.395000457764</ele>
        <time>2011-03-16T14:09:48Z</time>
      </trkpt>
      <trkpt lat="50.50201" lon="2.86958">
        <ele>14.659999847412</ele>
        <time>2011-03-16T14:09:52Z</time>
      </trkpt>
      <trkpt lat="50.50212" lon="2.86944">
        <ele>14.861000061035</ele>
        <time>2011-03-16T14:09:55Z</time>
      </trkpt>
      <trkpt lat="50.5022" lon="2.86938">
        <ele>15.201000213623</ele>
        <time>2011-03-16T14:09:57Z</time>
      </trkpt>
      <trkpt lat="50.50252" lon="2.86918">
        <ele>14.531999588013</ele>
        <time>2011-03-16T14:10:05Z</time>
      </trkpt>
      <trkpt lat="50.50259" lon="2.86914">
        <ele>14.484000205994</ele>
        <time>2011-03-16T14:10:07Z</time>
      </trkpt>
      <trkpt lat="50.50295" lon="2.86895">
        <ele>13.253999710083</ele>
        <time>2011-03-16T14:10:16Z</time>
      </trkpt>
      <trkpt lat="50.50312" lon="2.86887">
        <ele>13.267999649048</ele>
        <time>2011-03-16T14:10:21Z</time>
      </trkpt>
      <trkpt lat="50.50316" lon="2.86885">
        <ele>12.862999916077</ele>
        <time>2011-03-16T14:10:25Z</time>
      </trkpt>
    </trkseg>
  </trk>
</gpx>